Time;durP1;ratioP1;P1;durP2;ratioP2;P2;SDS_P1;SDS_P2;PMS_P1;PMS_P2;Temp;Humidity;BMP_temperature;BMP_pressure;BME280_temperature;BME280_humidity;BME280_pressure;Samples;Min_cycle;Max_cycle;Signal;HPM_P1;HPM_P2
2022/01/04 00:01:00;;;;;;;1.40;1.30;;;;;;;9.94;88.42;95802.25;5116224;28;20184;-64
2022/01/04 00:03:26;;;;;;;1.97;1.20;;;;;;;9.83;89.54;95791.91;5098035;28;20199;-63
2022/01/04 00:05:51;;;;;;;1.30;1.20;;;;;;;9.68;90.35;95799.59;5098036;28;20215;-64
2022/01/04 00:08:17;;;;;;;1.10;1.00;;;;;;;9.77;90.17;95793.69;5116723;28;20194;-64
2022/01/04 00:10:42;;;;;;;1.40;1.30;;;;;;;9.76;89.93;95784.25;5116310;28;20593;-63
2022/01/04 00:15:49;;;;;;;2.53;1.23;;;;;;;9.59;91.67;95779.09;5116713;28;20207;-63
2022/01/04 00:18:16;;;;;;;2.57;1.30;;;;;;;9.72;91.32;95777.94;5116283;28;20621;-64
2022/01/04 00:20:41;;;;;;;1.70;1.60;;;;;;;9.75;91.62;95763.56;5116127;28;20236;-64
2022/01/04 00:23:06;;;;;;;1.63;1.53;;;;;;;9.69;91.99;95770.56;5116123;28;20192;-63
2022/01/04 00:25:32;;;;;;;1.50;1.40;;;;;;;9.59;92.81;95760.78;5098274;28;20184;-63
2022/01/04 00:27:58;;;;;;;1.93;1.33;;;;;;;9.56;93.37;95756.03;5116628;28;20184;-63
2022/01/04 00:30:28;;;;;;;2.20;1.40;;;;;;;9.55;93.64;95759.69;5116167;28;20184;-63
2022/01/04 00:32:54;;;;;;;2.33;1.60;;;;;;;9.56;93.67;95750.81;5097940;28;20685;-65
2022/01/04 00:35:20;;;;;;;1.47;1.33;;;;;;;9.54;93.62;95752.88;5115738;28;20553;-63
2022/01/04 00:37:45;;;;;;;1.80;1.70;;;;;;;9.48;94.46;95748.63;5115893;28;20212;-63
2022/01/04 00:40:11;;;;;;;2.00;1.40;;;;;;;9.58;93.47;95745.34;5116138;28;20320;-63
2022/01/04 00:42:36;;;;;;;4.30;1.43;;;;;;;9.46;94.82;95729.00;5116335;28;20183;-63
2022/01/04 00:45:02;;;;;;;2.50;1.40;;;;;;;9.57;94.48;95728.84;5115487;28;20650;-63
2022/01/04 00:47:40;;;;;;;1.50;1.40;;;;;;;9.56;94.59;95726.47;5115860;28;20629;-66
2022/01/04 00:50:06;;;;;;;1.50;1.40;;;;;;;9.55;95.04;95720.44;5116007;28;20235;-63
2022/01/04 00:52:32;;;;;;;1.97;1.20;;;;;;;9.64;94.76;95712.19;5116369;28;20215;-63
2022/01/04 00:54:57;;;;;;;1.70;1.60;;;;;;;9.68;94.50;95708.03;5115648;28;20180;-63
2022/01/04 00:57:22;;;;;;;1.47;1.33;;;;;;;9.65;94.57;95703.28;5115907;28;20670;-63
2022/01/04 00:59:48;;;;;;;3.70;1.47;;;;;;;9.55;95.20;95691.69;5115898;28;20228;-63
2022/01/04 01:02:13;;;;;;;1.43;1.27;;;;;;;9.54;95.98;95684.06;5115096;28;20708;-63
2022/01/04 01:04:38;;;;;;;1.27;1.27;;;;;;;9.56;95.63;95693.28;5114227;28;20721;-64
2022/01/04 01:07:04;;;;;;;1.63;1.33;;;;;;;9.47;96.37;95683.50;5115696;28;20210;-63
2022/01/04 01:09:34;;;;;;;1.27;1.27;;;;;;;9.46;96.11;95666.22;5115462;28;20184;-63
2022/01/04 01:11:59;;;;;;;1.50;1.40;;;;;;;9.60;95.88;95665.56;5097627;28;20632;-64
2022/01/04 01:14:25;;;;;;;2.27;1.60;;;;;;;9.47;97.59;95662.56;5115081;28;20183;-64
2022/01/04 01:16:51;;;;;;;1.37;1.27;;;;;;;9.45;97.16;95657.59;5114947;28;20714;-64
2022/01/04 01:19:18;;;;;;;2.03;1.50;;;;;;;9.38;97.96;95646.53;5115286;28;20183;-63
2022/01/04 01:21:43;;;;;;;1.53;1.43;;;;;;;9.56;97.58;95645.38;5115324;28;20176;-63
2022/01/04 01:24:09;;;;;;;1.43;1.33;;;;;;;9.43;97.75;95643.97;5115056;28;20317;-63
2022/01/04 01:26:35;;;;;;;1.13;1.13;;;;;;;9.42;98.21;95642.38;5115257;28;20568;-63
2022/01/04 01:29:00;;;;;;;2.07;1.40;;;;;;;9.44;98.69;95635.06;5114641;28;20211;-63
2022/01/04 01:31:25;;;;;;;1.60;1.50;;;;;;;9.41;99.32;95640.81;5114410;28;20176;-64
2022/01/04 01:33:51;;;;;;;1.30;1.30;;;;;;;9.44;99.24;95635.06;5114561;28;20188;-63
2022/01/04 01:36:16;;;;;;;2.70;1.50;;;;;;;9.59;98.65;95631.81;5114861;28;20199;-64
2022/01/04 01:38:41;;;;;;;1.50;1.50;;;;;;;9.48;99.60;95619.66;5115069;28;20668;-63
2022/01/04 01:41:07;;;;;;;2.37;1.43;;;;;;;9.43;99.44;95622.25;5114825;28;20184;-63
2022/01/04 01:43:32;;;;;;;1.50;1.40;;;;;;;9.51;99.01;95609.53;5114508;28;20663;-63
2022/01/04 01:45:58;;;;;;;1.60;1.50;;;;;;;9.48;99.74;95604.78;5114657;28;20188;-68
2022/01/04 01:48:24;;;;;;;2.13;1.70;;;;;;;9.41;100.00;95592.94;5099228;28;20256;-63
2022/01/04 01:50:49;;;;;;;1.37;1.30;;;;;;;9.36;100.00;95585.81;5114513;28;20195;-63
2022/01/04 01:53:15;;;;;;;3.43;1.67;;;;;;;9.36;100.00;95572.75;5115221;28;20248;-63
2022/01/04 01:55:41;;;;;;;1.60;1.50;;;;;;;9.37;100.00;95557.84;5114769;28;20207;-63
2022/01/04 01:58:06;;;;;;;1.50;1.43;;;;;;;9.29;100.00;95553.88;5114348;28;20605;-64
2022/01/04 02:00:31;;;;;;;2.07;1.23;;;;;;;9.37;100.00;95545.56;5114478;28;20191;-63
2022/01/04 02:02:57;;;;;;;4.13;1.40;;;;;;;9.38;100.00;95535.91;5114471;28;20215;-63
2022/01/04 02:05:23;;;;;;;3.40;1.63;;;;;;;9.33;100.00;95538.47;5114102;28;20187;-63
2022/01/04 02:07:48;;;;;;;2.33;1.50;;;;;;;9.18;100.00;95537.31;5114537;28;20215;-63
2022/01/04 02:10:14;;;;;;;1.70;1.60;;;;;;;9.29;100.00;95535.59;5096007;28;20172;-63
2022/01/04 02:12:46;;;;;;;1.20;1.20;;;;;;;9.38;100.00;95517.59;5113991;28;20183;-63
2022/01/04 02:15:15;;;;;;;1.77;1.67;;;;;;;9.44;100.00;95521.84;5113960;28;20233;-64
2022/01/04 02:17:40;;;;;;;1.70;1.50;;;;;;;9.42;100.00;95516.06;5114286;28;20702;-63
2022/01/04 02:20:07;;;;;;;1.50;1.40;;;;;;;9.43;99.88;95512.41;5114059;28;20188;-64
2022/01/04 02:22:33;;;;;;;1.87;1.70;;;;;;;9.36;100.00;95506.63;5114095;28;20184;-63
2022/01/04 02:24:58;;;;;;;1.47;1.37;;;;;;;9.33;100.00;95505.28;5114118;28;20192;-63
2022/01/04 02:27:24;;;;;;;2.83;1.70;;;;;;;9.31;100.00;95507.34;5113723;28;20210;-63
2022/01/04 02:29:50;;;;;;;2.03;1.50;;;;;;;9.40;100.00;95490.19;5113811;28;20198;-63
2022/01/04 02:32:16;;;;;;;1.70;1.60;;;;;;;9.41;99.48;95477.88;5113673;28;20175;-63
2022/01/04 02:34:48;;;;;;;1.80;1.70;;;;;;;9.55;98.61;95466.72;5113850;28;20192;-63
2022/01/04 02:37:17;;;;;;;2.77;1.67;;;;;;;9.47;98.90;95466.44;5114356;28;20195;-63
2022/01/04 02:39:43;;;;;;;1.80;1.70;;;;;;;9.45;99.23;95460.66;5094801;28;20219;-64
2022/01/04 02:42:08;;;;;;;1.60;1.50;;;;;;;9.44;98.59;95454.63;5112735;28;20219;-64
2022/01/04 02:44:33;;;;;;;1.73;1.67;;;;;;;9.58;97.60;95441.91;5112768;28;20184;-64
2022/01/04 02:46:59;;;;;;;1.50;1.40;;;;;;;9.53;97.86;95426.16;5112838;28;20243;-63
2022/01/04 02:49:25;;;;;;;1.90;1.80;;;;;;;9.60;97.03;95426.72;5112730;28;20191;-63
2022/01/04 02:51:51;;;;;;;1.60;1.50;;;;;;;9.62;97.73;95427.28;5113268;28;20191;-63
2022/01/04 02:54:16;;;;;;;2.43;1.70;;;;;;;9.62;96.96;95418.63;5112747;28;20681;-63
2022/01/04 02:56:41;;;;;;;1.60;1.50;;;;;;;9.64;96.75;95414.72;5112749;28;20205;-64
2022/01/04 02:59:07;;;;;;;1.47;1.40;;;;;;;9.72;96.19;95410.84;5112775;28;20199;-63
2022/01/04 03:01:32;;;;;;;1.60;1.50;;;;;;;9.83;95.40;95389.69;5112630;28;20180;-63
2022/01/04 03:03:58;;;;;;;1.67;1.57;;;;;;;9.66;96.22;95388.31;5111998;28;20560;-64
2022/01/04 03:06:24;;;;;;;1.97;1.70;;;;;;;9.74;95.65;95390.44;5112680;28;20184;-63
2022/01/04 03:08:49;;;;;;;1.60;1.50;;;;;;;9.80;95.08;95385.00;5112368;28;20270;-63
2022/01/04 03:11:14;;;;;;;1.70;1.60;;;;;;;9.75;95.68;95389.41;5112221;28;20176;-63
2022/01/04 03:13:40;;;;;;;1.90;1.70;;;;;;;9.72;95.99;95382.84;5112569;28;20192;-63
2022/01/04 03:16:05;;;;;;;2.00;1.77;;;;;;;9.73;95.73;95375.78;5094249;28;20223;-63
2022/01/04 03:18:31;;;;;;;1.43;1.33;;;;;;;9.77;95.18;95369.78;5112591;28;20254;-63
2022/01/04 03:20:56;;;;;;;1.50;1.47;;;;;;;9.76;95.34;95375.25;5093790;28;20180;-66
2022/01/04 03:23:22;;;;;;;2.70;1.40;;;;;;;9.66;96.74;95364.75;5112446;28;20180;-63
2022/01/04 03:25:47;;;;;;;1.53;1.43;;;;;;;9.76;95.96;95362.97;5111169;28;20187;-63
2022/01/04 03:28:13;;;;;;;1.60;1.50;;;;;;;9.84;95.83;95359.09;5112643;28;20536;-63
2022/01/04 03:30:39;;;;;;;1.33;1.33;;;;;;;9.73;96.45;95339.94;5112094;28;20184;-63
2022/01/04 03:33:05;;;;;;;1.70;1.53;;;;;;;9.71;96.53;95346.47;5112154;28;20195;-64
2022/01/04 03:35:30;;;;;;;1.73;1.63;;;;;;;9.69;96.96;95349.38;5112579;28;20214;-63
2022/01/04 03:37:56;;;;;;;1.90;1.80;;;;;;;9.70;95.81;95347.50;5073232;28;1105400;-63
2022/01/04 03:40:21;;;;;;;1.40;1.30;;;;;;;9.74;96.42;95341.53;5112608;28;20787;-63
2022/01/04 03:42:47;;;;;;;2.30;1.67;;;;;;;9.67;96.86;95337.56;5113276;28;20716;-63
2022/01/04 03:45:12;;;;;;;1.60;1.50;;;;;;;9.67;97.31;95332.34;5112580;28;20180;-66
2022/01/04 03:47:37;;;;;;;1.50;1.47;;;;;;;9.76;97.38;95321.09;5113045;28;20521;-63
2022/01/04 03:50:03;;;;;;;1.67;1.50;;;;;;;9.71;97.73;95320.31;5112773;28;20208;-63
2022/01/04 03:52:29;;;;;;;1.30;1.30;;;;;;;9.74;97.99;95319.81;5105636;28;20237;-63
2022/01/04 03:54:55;;;;;;;1.60;1.50;;;;;;;9.60;97.61;95304.59;5112833;28;20188;-64
2022/01/04 03:57:20;;;;;;;1.60;1.50;;;;;;;9.73;96.46;95300.72;5112891;28;20676;-63
2022/01/04 03:59:46;;;;;;;3.90;1.80;;;;;;;9.86;96.49;95291.59;5094609;28;20233;-65
2022/01/04 04:02:11;;;;;;;1.73;1.63;;;;;;;9.80;97.16;95292.63;5112426;28;20255;-64
2022/01/04 04:04:37;;;;;;;1.67;1.57;;;;;;;9.71;97.40;95284.47;5112479;28;20184;-63
2022/01/04 04:07:02;;;;;;;1.63;1.53;;;;;;;9.71;97.87;95270.59;5112229;28;20211;-63
2022/01/04 04:09:28;;;;;;;1.50;1.40;;;;;;;9.76;97.53;95274.00;5113062;28;20211;-63
2022/01/04 04:11:54;;;;;;;2.03;1.60;;;;;;;9.79;97.08;95273.50;5094376;28;20191;-64
2022/01/04 04:14:19;;;;;;;1.63;1.53;;;;;;;9.85;96.66;95266.47;5112922;28;20191;-63
2022/01/04 04:16:44;;;;;;;1.60;1.50;;;;;;;9.84;96.99;95257.81;5112190;28;20648;-64
2022/01/04 04:19:10;;;;;;;1.47;1.30;;;;;;;9.80;97.25;95256.78;5112248;28;20229;-63
2022/01/04 04:21:35;;;;;;;2.10;1.63;;;;;;;9.78;96.62;95250.22;5112759;28;20532;-63
2022/01/04 04:24:01;;;;;;;1.70;1.53;;;;;;;9.86;96.92;95244.50;5112528;28;20175;-64
2022/01/04 04:26:26;;;;;;;1.30;1.20;;;;;;;9.76;97.90;95237.38;5112986;28;20184;-63
2022/01/04 04:28:51;;;;;;;1.30;1.20;;;;;;;9.76;98.27;95236.59;5112855;28;20267;-63
2022/01/04 04:31:17;;;;;;;1.30;1.30;;;;;;;9.77;98.92;95235.56;5111930;28;20186;-64
2022/01/04 04:33:42;;;;;;;1.90;1.60;;;;;;;9.75;98.21;95232.44;5094223;28;20180;-63
2022/01/04 04:36:09;;;;;;;1.50;1.40;;;;;;;9.84;98.54;95234.28;5113048;28;20553;-64
2022/01/04 04:38:34;;;;;;;1.60;1.50;;;;;;;9.83;99.36;95235.31;5116384;28;20216;-63
2022/01/04 04:41:00;;;;;;;1.40;1.40;;;;;;;9.74;100.00;95223.00;5097418;28;20229;-64
2022/01/04 04:43:25;;;;;;;1.50;1.37;;;;;;;9.72;100.00;95212.78;5097907;28;20191;-63
2022/01/04 04:45:51;;;;;;;1.40;1.40;;;;;;;9.78;100.00;95219.59;5116006;28;20192;-64
2022/01/04 04:48:17;;;;;;;1.57;1.50;;;;;;;9.86;100.00;95213.84;5115495;28;20267;-64
2022/01/04 04:50:42;;;;;;;1.53;1.43;;;;;;;9.88;100.00;95200.50;5115969;28;20607;-63
2022/01/04 04:53:07;;;;;;;1.43;1.40;;;;;;;9.82;100.00;95206.78;5116144;28;20520;-63
2022/01/04 04:55:33;;;;;;;1.70;1.20;;;;;;;9.76;100.00;95192.13;5115457;28;20197;-63
2022/01/04 04:57:58;;;;;;;1.23;1.20;;;;;;;9.66;100.00;95187.66;5115826;28;20199;-64
2022/01/04 05:00:24;;;;;;;1.10;1.10;;;;;;;9.73;100.00;95192.66;5099693;28;20210;-65
2022/01/04 05:02:49;;;;;;;1.40;1.30;;;;;;;9.76;100.00;95187.69;5115351;28;20607;-63
2022/01/04 05:05:14;;;;;;;1.60;1.50;;;;;;;9.80;100.00;95162.59;5115188;28;20333;-63
2022/01/04 05:07:40;;;;;;;1.47;1.37;;;;;;;9.84;100.00;95184.56;5115339;28;20189;-64
2022/01/04 05:10:07;;;;;;;1.47;1.37;;;;;;;9.65;100.00;95180.06;5115504;28;20723;-64
2022/01/04 05:12:32;;;;;;;1.27;1.10;;;;;;;9.70;100.00;95175.63;5115570;28;20531;-63
2022/01/04 05:14:58;;;;;;;1.10;1.10;;;;;;;9.74;100.00;95174.09;5115466;28;20187;-63
2022/01/04 05:17:23;;;;;;;1.10;1.10;;;;;;;9.69;100.00;95160.22;5115005;28;20200;-64
2022/01/04 05:19:49;;;;;;;2.73;1.10;;;;;;;9.64;100.00;95165.44;5115659;28;20188;-63
2022/01/04 05:22:14;;;;;;;1.60;1.50;;;;;;;9.71;100.00;95166.75;5115166;28;20183;-63
2022/01/04 05:24:40;;;;;;;1.53;1.20;;;;;;;9.72;100.00;95162.31;5115749;28;20183;-63
2022/01/04 05:27:05;;;;;;;3.00;1.43;;;;;;;9.72;100.00;95162.31;5114962;28;20210;-63
2022/01/04 05:29:31;;;;;;;1.40;1.33;;;;;;;9.69;100.00;95155.78;5115374;28;20206;-64
2022/01/04 05:31:56;;;;;;;;;;;;;;;9.79;100.00;95141.91;5115232;28;20030;-64
2022/01/04 05:34:22;;;;;;;1.50;1.40;;;;;;;9.81;100.00;95143.19;5114093;28;20882;-63
2022/01/04 05:36:47;;;;;;;1.40;1.30;;;;;;;9.82;100.00;95138.75;5113475;28;20400;-63
2022/01/04 05:39:12;;;;;;;1.50;1.40;;;;;;;9.86;100.00;95139.81;5095169;28;20408;-63
2022/01/04 05:41:38;;;;;;;3.30;1.60;;;;;;;9.92;100.00;95134.28;5114187;28;20412;-63
2022/01/04 05:44:03;;;;;;;1.33;1.30;;;;;;;9.86;100.00;95122.25;5113628;28;20783;-64
2022/01/04 05:46:29;;;;;;;1.57;1.47;;;;;;;9.83;100.00;95106.31;5113771;28;21118;-64
2022/01/04 05:48:54;;;;;;;1.97;1.40;;;;;;;9.82;100.00;95104.75;5112791;28;20761;-63
2022/01/04 05:51:20;;;;;;;1.48;1.38;;;;;;;9.92;100.00;95100.28;5113579;28;20434;-63
2022/01/04 05:53:45;;;;;;;1.60;1.50;;;;;;;9.96;100.00;95087.47;5094637;28;20466;-64
2022/01/04 05:56:10;;;;;;;1.70;1.40;;;;;;;9.92;100.00;95078.56;5114422;28;20249;-63
2022/01/04 05:58:36;;;;;;;2.63;1.53;;;;;;;9.99;100.00;95074.63;5114856;28;20548;-64
2022/01/04 06:01:01;;;;;;;1.60;1.50;;;;;;;9.79;100.00;95072.06;5114309;28;20183;-63
2022/01/04 06:03:27;;;;;;;1.50;1.40;;;;;;;9.65;100.00;95063.16;5114218;28;20528;-63
2022/01/04 06:05:54;;;;;;;2.23;1.27;;;;;;;9.63;100.00;95060.03;5113730;28;20227;-64
2022/01/04 06:08:20;;;;;;;1.40;1.30;;;;;;;9.77;100.00;95066.28;5113108;28;20393;-63
2022/01/04 06:10:50;;;;;;;2.53;1.40;;;;;;;9.66;100.00;95061.31;5114425;28;20188;-63
2022/01/04 06:15:59;;;;;;;1.67;1.43;;;;;;;9.74;100.00;95058.19;5114180;28;20260;-63
2022/01/04 06:18:25;;;;;;;1.97;1.43;;;;;;;9.62;100.00;95049.81;5113824;28;20176;-65
2022/01/04 06:20:51;;;;;;;2.97;1.43;;;;;;;9.48;100.00;95041.72;5113950;28;20267;-65
2022/01/04 06:23:16;;;;;;;2.23;1.33;;;;;;;9.51;100.00;95030.75;5113541;28;20262;-64
2022/01/04 06:25:42;;;;;;;1.47;1.30;;;;;;;9.60;100.00;95034.38;5095813;28;20188;-65
2022/01/04 06:28:08;;;;;;;1.13;1.13;;;;;;;9.60;100.00;95014.25;5114128;28;20202;-64
2022/01/04 06:30:34;;;;;;;1.23;1.20;;;;;;;9.57;100.00;95014.78;5113980;28;20215;-64
2022/01/04 06:32:59;;;;;;;2.30;1.17;;;;;;;9.58;100.00;95005.13;5113937;28;20188;-66
2022/01/04 06:35:27;;;;;;;1.47;1.20;;;;;;;9.56;100.00;95007.19;5113775;28;20184;-65
2022/01/04 06:37:52;;;;;;;1.83;1.30;;;;;;;9.56;100.00;95007.19;5113736;28;20235;-64
2022/01/04 06:40:18;;;;;;;1.53;1.10;;;;;;;9.58;100.00;95007.72;5113693;28;20254;-63
2022/01/04 06:42:43;;;;;;;1.23;1.20;;;;;;;9.68;100.00;94999.06;5113876;28;20184;-63
2022/01/04 06:45:10;;;;;;;1.23;1.13;;;;;;;9.54;100.00;95004.03;5095005;28;20203;-63
2022/01/04 06:47:36;;;;;;;2.87;1.27;;;;;;;9.60;100.00;95011.63;5113143;28;20535;-64
2022/01/04 06:50:02;;;;;;;1.03;1.03;;;;;;;9.64;100.00;95006.66;5113118;28;20172;-63
2022/01/04 06:52:27;;;;;;;1.70;1.10;;;;;;;9.64;100.00;95003.28;5113305;28;20527;-64
2022/01/04 06:54:53;;;;;;;1.23;1.13;;;;;;;9.63;100.00;94997.25;5113196;28;20175;-64
2022/01/04 06:57:18;;;;;;;1.63;1.10;;;;;;;9.72;100.00;95002.72;5113675;28;20212;-64
2022/01/04 06:59:43;;;;;;;1.20;1.20;;;;;;;9.61;100.00;94994.09;5095165;28;20180;-64
2022/01/04 07:02:10;;;;;;;1.10;1.00;;;;;;;9.64;100.00;95004.03;5113085;28;20191;-66
2022/01/04 07:04:35;;;;;;;1.20;1.20;;;;;;;9.65;100.00;94991.75;5112632;28;20945;-64
2022/01/04 07:07:00;;;;;;;1.20;1.20;;;;;;;9.65;100.00;94989.91;5112993;28;20208;-64
2022/01/04 07:09:26;;;;;;;2.00;1.20;;;;;;;9.59;100.00;94985.72;5113623;28;20188;-64
2022/01/04 07:11:52;;;;;;;1.23;1.20;;;;;;;9.60;100.00;94975.00;5113108;28;20203;-64
2022/01/04 07:14:18;;;;;;;1.60;1.30;;;;;;;9.64;100.00;94977.13;5113190;28;20553;-64
2022/01/04 07:16:43;;;;;;;0.90;0.90;;;;;;;9.67;100.00;94971.34;5113157;28;20208;-64
2022/01/04 07:19:08;;;;;;;1.30;1.20;;;;;;;9.69;100.00;94964.81;5113016;28;20249;-64
2022/01/04 07:21:36;;;;;;;1.23;1.13;;;;;;;9.64;100.00;94971.88;5113128;28;20175;-64
2022/01/04 07:24:01;;;;;;;2.00;1.00;;;;;;;9.70;100.00;94962.94;5112591;28;20225;-64
2022/01/04 07:26:28;;;;;;;1.67;1.07;;;;;;;9.79;100.00;94971.84;5095084;28;20195;-63
2022/01/04 07:28:54;;;;;;;0.93;0.93;;;;;;;9.76;100.00;94970.53;5112996;28;20251;-64
2022/01/04 07:31:19;;;;;;;1.00;1.00;;;;;;;9.78;100.00;94965.81;5112653;28;20595;-64
2022/01/04 07:33:45;;;;;;;1.17;1.00;;;;;;;9.80;100.00;94961.13;5112711;28;20176;-64
2022/01/04 07:36:12;;;;;;;1.20;1.10;;;;;;;9.77;100.00;94959.03;5112787;28;20260;-64
2022/01/04 07:38:38;;;;;;;1.00;1.00;;;;;;;9.83;100.00;94951.94;5113021;28;20668;-64
2022/01/04 07:41:04;;;;;;;1.00;1.00;;;;;;;9.84;100.00;94954.28;5112945;28;20266;-64
2022/01/04 07:43:30;;;;;;;0.93;0.90;;;;;;;9.83;100.00;94957.16;5094721;28;20183;-64
2022/01/04 07:45:56;;;;;;;1.27;1.10;;;;;;;9.84;100.00;94949.06;5094669;28;20192;-68
2022/01/04 07:48:21;;;;;;;1.67;1.23;;;;;;;9.86;100.00;94956.66;5111076;28;20247;-64
2022/01/04 07:50:47;;;;;;;4.30;1.47;;;;;;;10.47;100.00;94944.13;5112587;28;20179;-64
2022/01/04 07:53:13;;;;;;;2.90;1.23;;;;;;;11.08;100.00;94934.00;5094204;28;20176;-64
2022/01/04 07:55:38;;;;;;;1.30;1.20;;;;;;;10.80;100.00;94938.13;5112637;28;20199;-65
2022/01/04 07:58:04;;;;;;;1.33;1.23;;;;;;;10.65;100.00;94943.47;5112589;28;20207;-65
2022/01/04 08:00:29;;;;;;;2.10;1.03;;;;;;;10.38;100.00;94933.41;5112454;28;20188;-65
2022/01/04 08:02:55;;;;;;;1.10;1.10;;;;;;;10.24;100.00;94923.81;5111601;28;20176;-65
2022/01/04 08:05:22;;;;;;;1.93;1.00;;;;;;;10.17;100.00;94911.00;5110608;28;20184;-65
2022/01/04 08:07:49;;;;;;;1.23;1.13;;;;;;;10.33;100.00;94899.41;5113000;28;20180;-64
2022/01/04 08:10:14;;;;;;;1.00;1.00;;;;;;;10.38;100.00;94899.38;5112054;28;20184;-65
2022/01/04 08:12:40;;;;;;;1.00;1.00;;;;;;;10.38;100.00;94888.09;5113717;27;21567;-65
2022/01/04 08:15:08;;;;;;;1.07;1.07;;;;;;;10.38;100.00;94896.75;5116038;27;20184;-67
2022/01/04 08:17:34;;;;;;;1.50;1.40;;;;;;;10.50;100.00;94914.75;5113852;28;20199;-65
2022/01/04 08:20:00;;;;;;;0.97;0.87;;;;;;;10.54;100.00;94913.13;5116104;28;20236;-65
2022/01/04 08:22:31;;;;;;;2.40;1.10;;;;;;;10.55;100.00;94906.84;5116254;28;20180;-66
2022/01/04 08:24:57;;;;;;;0.90;0.90;;;;;;;10.60;100.00;94898.19;5115797;28;20225;-65
2022/01/04 08:27:23;;;;;;;1.00;0.90;;;;;;;10.62;100.00;94891.63;5115789;28;20212;-65
2022/01/04 08:29:48;;;;;;;1.13;1.03;;;;;;;10.73;100.00;94900.97;5115574;28;20608;-65
2022/01/04 08:32:15;;;;;;;1.00;1.00;;;;;;;10.73;100.00;94898.34;5115651;28;20180;-67
2022/01/04 08:34:40;;;;;;;1.10;1.00;;;;;;;10.90;100.00;94902.41;5096937;28;20229;-66
2022/01/04 08:37:06;;;;;;;0.83;0.80;;;;;;;10.91;100.00;94899.53;5097530;28;20224;-65
2022/01/04 08:39:31;;;;;;;3.07;0.97;;;;;;;10.89;100.00;94901.63;5115228;28;20234;-65
2022/01/04 08:42:01;;;;;;;2.50;1.10;;;;;;;10.93;100.00;94888.75;5115381;28;20238;-66
2022/01/04 08:44:26;;;;;;;1.47;1.10;;;;;;;11.02;100.00;94887.13;5115241;28;20648;-67
2022/01/04 08:46:52;;;;;;;1.00;1.00;;;;;;;11.06;100.00;94878.44;5097510;28;20192;-66
2022/01/04 08:49:18;;;;;;;1.27;1.20;;;;;;;11.11;100.00;94873.13;5115340;28;20180;-66
2022/01/04 08:51:43;;;;;;;2.80;1.10;;;;;;;11.24;100.00;94872.50;5115437;28;20701;-67
2022/01/04 08:54:08;;;;;;;1.07;1.03;;;;;;;11.24;100.00;94867.25;5114989;28;20210;-67
2022/01/04 08:56:34;;;;;;;0.90;0.90;;;;;;;11.23;100.00;94872.75;5115273;28;20207;-66
2022/01/04 08:59:00;;;;;;;0.90;0.90;;;;;;;11.21;100.00;94875.66;5115023;28;20526;-66
2022/01/04 09:01:25;;;;;;;1.00;1.00;;;;;;;11.32;100.00;94865.84;5115576;28;20270;-66
2022/01/04 09:03:51;;;;;;;0.90;0.90;;;;;;;11.40;100.00;94861.84;5115451;28;20644;-66
2022/01/04 09:06:16;;;;;;;1.07;1.00;;;;;;;11.45;100.00;94867.81;5115500;28;20182;-66
2022/01/04 09:08:42;;;;;;;1.20;1.10;;;;;;;11.47;99.11;94870.94;5115609;28;20188;-66
2022/01/04 09:11:09;;;;;;;1.40;1.27;;;;;;;11.57;98.77;94877.94;5115344;28;20191;-66
2022/01/04 09:13:39;;;;;;;1.70;1.10;;;;;;;11.53;98.17;94871.69;5115157;28;20188;-66
2022/01/04 09:18:43;;;;;;;1.00;1.00;;;;;;;11.57;98.06;94870.84;5114667;28;20327;-66
2022/01/04 09:21:10;;;;;;;1.40;1.30;;;;;;;11.58;98.66;94867.16;5115244;28;20543;-65
2022/01/04 09:23:36;;;;;;;1.70;1.17;;;;;;;11.56;98.98;94861.41;5115030;28;20684;-66
2022/01/04 09:26:01;;;;;;;1.20;1.20;;;;;;;11.58;99.32;94875.03;5114961;28;20259;-66
2022/01/04 09:28:27;;;;;;;1.43;1.40;;;;;;;11.52;98.82;94863.03;5096553;28;20187;-66
2022/01/04 09:30:53;;;;;;;1.23;1.13;;;;;;;11.56;99.78;94863.25;5114324;28;20255;-66
2022/01/04 09:33:20;;;;;;;1.40;1.30;;;;;;;11.53;99.46;94855.94;5114472;28;20180;-66
2022/01/04 09:35:46;;;;;;;1.20;1.20;;;;;;;11.45;100.00;94853.91;5114394;28;20279;-66
2022/01/04 09:38:12;;;;;;;1.30;1.20;;;;;;;11.34;100.00;94850.63;5114011;28;20314;-66
2022/01/04 09:40:39;;;;;;;1.10;1.00;;;;;;;11.32;100.00;94844.84;5113901;28;20191;-65
2022/01/04 09:43:06;;;;;;;1.30;1.20;;;;;;;11.36;100.00;94838.03;5114927;28;20655;-65
2022/01/04 09:45:33;;;;;;;1.13;1.13;;;;;;;11.43;100.00;94850.78;5115039;28;20199;-67
2022/01/04 09:47:58;;;;;;;1.40;1.27;;;;;;;11.43;100.00;94843.69;5096339;28;20188;-66
2022/01/04 09:50:24;;;;;;;1.43;1.23;;;;;;;11.40;100.00;94843.47;5113897;28;20188;-66
2022/01/04 09:52:49;;;;;;;1.10;1.10;;;;;;;11.42;100.00;94847.41;5113930;28;20367;-66
2022/01/04 09:55:17;;;;;;;1.23;1.17;;;;;;;11.48;100.00;94859.38;5114575;28;20218;-65
2022/01/04 09:57:44;;;;;;;1.30;1.20;;;;;;;11.48;100.00;94851.50;5114067;28;20707;-66
2022/01/04 10:00:14;;;;;;;0.90;0.90;;;;;;;11.32;100.00;94844.84;5113626;28;20678;-66
2022/01/04 10:02:41;;;;;;;1.17;1.10;;;;;;;11.42;100.00;94844.00;5113299;28;20192;-66
2022/01/04 10:05:25;;;;;;;2.40;1.20;;;;;;;11.31;100.00;94847.78;5112833;28;20176;-66
2022/01/04 10:08:00;;;;;;;1.10;1.10;;;;;;;11.54;100.00;94841.72;5114222;28;20191;-66
2022/01/04 10:10:26;;;;;;;2.40;1.10;;;;;;;11.60;100.00;94840.63;5113803;28;20164;-66
2022/01/04 10:13:01;;;;;;;1.30;1.20;;;;;;;11.57;100.00;94834.09;5114393;28;20527;-65
2022/01/04 10:15:38;;;;;;;2.50;1.40;;;;;;;11.54;100.00;94826.00;5095801;28;20638;-66
2022/01/04 10:18:25;;;;;;;1.80;1.27;;;;;;;11.56;100.00;94826.50;5113994;28;20285;-66
2022/01/04 10:21:02;;;;;;;2.87;1.10;;;;;;;11.61;100.00;94829.06;5114051;28;20183;-65
2022/01/04 10:23:27;;;;;;;1.70;1.30;;;;;;;11.71;100.00;94821.06;5113388;28;20187;-66
2022/01/04 10:26:04;;;;;;;1.17;1.17;;;;;;;11.78;100.00;94811.03;5113573;28;20573;-66
2022/01/04 10:28:39;;;;;;;1.40;1.40;;;;;;;11.81;99.84;94804.47;5098239;28;20180;-66
2022/01/04 10:31:07;;;;;;;2.50;1.50;;;;;;;11.96;98.29;94801.63;5113970;28;20646;-69
2022/01/04 10:33:34;;;;;;;1.40;1.40;;;;;;;11.92;97.49;94809.28;5113388;28;20192;-67
2022/01/04 10:36:01;;;;;;;2.63;1.40;;;;;;;11.99;96.87;94806.28;5113184;28;20203;-66
2022/01/04 10:38:34;;;;;;;2.00;1.80;;;;;;;11.95;96.52;94798.22;5092083;28;20216;-66
2022/01/04 10:41:02;;;;;;;1.40;1.40;;;;;;;12.13;96.23;94782.75;5093234;28;20180;-66
2022/01/04 10:43:52;;;;;;;1.70;1.60;;;;;;;12.27;94.81;94786.19;5092819;28;20183;-66
2022/01/04 10:46:29;;;;;;;2.40;1.70;;;;;;;12.17;93.38;94792.38;5089952;28;20196;-67
2022/01/04 10:48:55;;;;;;;1.43;1.37;;;;;;;12.19;91.38;94790.28;5091535;28;20189;-66
2022/01/04 10:51:22;;;;;;;2.63;1.80;;;;;;;12.28;91.31;94790.38;5090211;28;20185;-66
2022/01/04 10:53:50;;;;;;;1.60;1.50;;;;;;;12.14;91.57;94806.09;5090489;28;20188;-67
2022/01/04 10:56:22;;;;;;;1.57;1.50;;;;;;;12.12;91.69;94810.84;5092581;28;20203;-67
2022/01/04 10:58:50;;;;;;;7.00;1.93;;;;;;;12.06;92.08;94799.63;5092592;28;20168;-66
2022/01/04 11:01:18;;;;;;;7.03;1.90;;;;;;;12.00;92.41;94790.25;5092207;28;20177;-66
2022/01/04 11:03:47;;;;;;;2.77;1.40;;;;;;;12.08;92.15;94776.50;5092020;28;20266;-65
2022/01/04 11:06:32;;;;;;;1.67;1.57;;;;;;;12.17;92.01;94767.97;5091427;28;20269;-64
2022/01/04 11:08:58;;;;;;;1.50;1.50;;;;;;;12.00;93.15;94784.22;5091160;28;20268;-65
2022/01/04 11:11:25;;;;;;;3.00;1.60;;;;;;;12.00;92.52;94779.75;5092318;28;20329;-65
2022/01/04 11:13:54;;;;;;;1.63;1.53;;;;;;;12.11;91.81;94788.28;5092763;28;20184;-65
2022/01/04 11:16:23;;;;;;;1.50;1.40;;;;;;;12.14;91.27;94777.22;5090732;28;20235;-65
2022/01/04 11:18:52;;;;;;;1.63;1.53;;;;;;;12.11;91.94;94783.03;5086480;28;20647;-66
2022/01/04 11:21:26;;;;;;;2.60;1.30;;;;;;;12.22;90.73;94783.66;5092099;28;20181;-66
2022/01/04 11:23:53;;;;;;;1.40;1.30;;;;;;;12.25;90.73;94799.63;5092693;28;20176;-65
2022/01/04 11:26:19;;;;;;;2.20;1.20;;;;;;;12.31;90.43;94784.59;5092655;28;20189;-65
2022/01/04 11:28:46;;;;;;;2.40;1.33;;;;;;;12.35;91.35;94780.31;5092425;28;20189;-65
2022/01/04 11:31:18;;;;;;;1.33;1.23;;;;;;;12.38;91.40;94767.38;5091919;28;20252;-65
2022/01/04 11:34:12;;;;;;;2.10;1.73;;;;;;;12.31;91.68;94769.59;5083034;28;20200;-65
2022/01/04 11:36:40;;;;;;;1.50;1.40;;;;;;;12.30;92.46;94770.66;5092194;28;20266;-65
2022/01/04 11:39:32;;;;;;;1.80;1.70;;;;;;;12.27;91.99;94771.22;5105301;28;20228;-65